sensor_id;sensor_type;location;lat;lon;timestamp;pressure;altitude;pressure_sealevel;temperature;humidity
15694;BME280;7947;48.834;9.132;2023-06-22T00:02:25;98195.53;;;21.58;88.06
15694;BME280;7947;48.834;9.132;2023-06-22T00:05:28;98194.03;;;21.61;87.81
15694;BME280;7947;48.834;9.132;2023-06-22T00:08:31;98197.00;;;21.55;87.83
15694;BME280;7947;48.834;9.132;2023-06-22T00:11:33;98193.81;;;21.53;87.84
15694;BME280;7947;48.834;9.132;2023-06-22T00:14:37;98193.47;;;21.55;88.30
15694;BME280;7947;48.834;9.132;2023-06-22T00:17:40;98187.47;;;21.49;88.22
15694;BME280;7947;48.834;9.132;2023-06-22T00:20:43;98185.75;;;21.45;88.38
15694;BME280;7947;48.834;9.132;2023-06-22T00:23:47;98203.63;;;21.42;88.70
15694;BME280;7947;48.834;9.132;2023-06-22T00:26:49;98206.66;;;21.41;88.57
15694;BME280;7947;48.834;9.132;2023-06-22T00:29:53;98197.81;;;21.32;88.29
15694;BME280;7947;48.834;9.132;2023-06-22T00:32:56;98192.81;;;21.22;88.59
15694;BME280;7947;48.834;9.132;2023-06-22T00:36:00;98199.09;;;21.22;89.27
15694;BME280;7947;48.834;9.132;2023-06-22T00:39:04;98204.53;;;21.22;89.53
15694;BME280;7947;48.834;9.132;2023-06-22T00:42:08;98182.59;;;21.19;89.23
15694;BME280;7947;48.834;9.132;2023-06-22T00:45:12;98196.34;;;21.22;89.33
15694;BME280;7947;48.834;9.132;2023-06-22T00:48:15;98179.63;;;21.24;89.12
15694;BME280;7947;48.834;9.132;2023-06-22T00:51:18;98195.09;;;21.20;89.29
15694;BME280;7947;48.834;9.132;2023-06-22T00:54:25;98232.97;;;21.21;89.53
15694;BME280;7947;48.834;9.132;2023-06-22T00:57:28;98235.44;;;21.14;89.47
15694;BME280;7947;48.834;9.132;2023-06-22T01:00:32;98210.00;;;21.10;90.27
15694;BME280;7947;48.834;9.132;2023-06-22T01:03:35;98248.41;;;21.17;90.34
15694;BME280;7947;48.834;9.132;2023-06-22T01:06:43;98285.25;;;21.23;90.23
15694;BME280;7947;48.834;9.132;2023-06-22T01:09:52;98246.59;;;21.21;90.26
15694;BME280;7947;48.834;9.132;2023-06-22T01:13:02;98237.03;;;21.27;90.44
15694;BME280;7947;48.834;9.132;2023-06-22T01:16:11;98253.53;;;21.31;90.23
15694;BME280;7947;48.834;9.132;2023-06-22T01:19:29;98234.75;;;21.29;89.75
15694;BME280;7947;48.834;9.132;2023-06-22T01:22:46;98235.91;;;21.28;90.25
15694;BME280;7947;48.834;9.132;2023-06-22T01:25:59;98230.81;;;21.27;89.99
15694;BME280;7947;48.834;9.132;2023-06-22T01:29:08;98226.16;;;21.15;90.10
15694;BME280;7947;48.834;9.132;2023-06-22T01:32:14;98219.53;;;21.16;89.89
15694;BME280;7947;48.834;9.132;2023-06-22T01:35:18;98227.63;;;21.13;89.89
15694;BME280;7947;48.834;9.132;2023-06-22T01:38:21;98215.00;;;21.08;90.09
15694;BME280;7947;48.834;9.132;2023-06-22T01:41:26;98225.91;;;21.08;90.68
15694;BME280;7947;48.834;9.132;2023-06-22T01:44:31;98227.72;;;21.04;90.30
15694;BME280;7947;48.834;9.132;2023-06-22T01:47:35;98222.94;;;21.01;90.61
15694;BME280;7947;48.834;9.132;2023-06-22T01:50:38;98216.91;;;20.96;90.99
15694;BME280;7947;48.834;9.132;2023-06-22T01:53:41;98225.69;;;21.01;90.47
15694;BME280;7947;48.834;9.132;2023-06-22T01:56:44;98222.16;;;21.01;90.15
15694;BME280;7947;48.834;9.132;2023-06-22T01:59:55;98232.91;;;20.97;90.13
15694;BME280;7947;48.834;9.132;2023-06-22T02:03:03;98230.72;;;20.91;90.28
15694;BME280;7947;48.834;9.132;2023-06-22T02:06:10;98226.66;;;20.85;90.39
15694;BME280;7947;48.834;9.132;2023-06-22T02:09:16;98249.94;;;20.82;90.47
15694;BME280;7947;48.834;9.132;2023-06-22T02:12:22;98236.97;;;20.79;91.10
15694;BME280;7947;48.834;9.132;2023-06-22T02:15:27;98230.59;;;20.75;90.93
15694;BME280;7947;48.834;9.132;2023-06-22T02:18:30;98242.53;;;20.71;91.44
15694;BME280;7947;48.834;9.132;2023-06-22T02:21:33;98240.63;;;20.71;91.00
15694;BME280;7947;48.834;9.132;2023-06-22T02:24:36;98235.25;;;20.62;91.27
15694;BME280;7947;48.834;9.132;2023-06-22T02:27:39;98240.69;;;20.62;91.70
15694;BME280;7947;48.834;9.132;2023-06-22T02:30:43;98238.66;;;20.59;91.89
15694;BME280;7947;48.834;9.132;2023-06-22T02:33:46;98229.22;;;20.57;92.01
15694;BME280;7947;48.834;9.132;2023-06-22T02:36:50;98215.94;;;20.55;91.85
15694;BME280;7947;48.834;9.132;2023-06-22T02:39:53;98215.00;;;20.51;92.04
15694;BME280;7947;48.834;9.132;2023-06-22T02:42:58;98212.59;;;20.50;91.86
15694;BME280;7947;48.834;9.132;2023-06-22T02:46:09;98203.84;;;20.44;92.21
15694;BME280;7947;48.834;9.132;2023-06-22T02:49:27;98201.94;;;20.45;92.05
15694;BME280;7947;48.834;9.132;2023-06-22T02:52:48;98207.59;;;20.40;92.23
15694;BME280;7947;48.834;9.132;2023-06-22T02:55:57;98198.06;;;20.34;92.55
15694;BME280;7947;48.834;9.132;2023-06-22T02:59:13;98194.63;;;20.37;92.00
15694;BME280;7947;48.834;9.132;2023-06-22T03:02:28;98200.09;;;20.37;92.14
15694;BME280;7947;48.834;9.132;2023-06-22T03:05:51;98200.31;;;20.32;92.79
15694;BME280;7947;48.834;9.132;2023-06-22T03:09:06;98193.13;;;20.27;92.72
15694;BME280;7947;48.834;9.132;2023-06-22T03:12:20;98195.28;;;20.22;92.60
15694;BME280;7947;48.834;9.132;2023-06-22T03:15:34;98189.84;;;20.22;92.44
15694;BME280;7947;48.834;9.132;2023-06-22T03:18:46;98186.03;;;20.14;92.20
15694;BME280;7947;48.834;9.132;2023-06-22T03:22:04;98185.00;;;20.07;92.51
15694;BME280;7947;48.834;9.132;2023-06-22T03:25:20;98189.75;;;20.10;93.08
15694;BME280;7947;48.834;9.132;2023-06-22T03:28:48;98197.91;;;20.10;93.07
15694;BME280;7947;48.834;9.132;2023-06-22T03:32:22;98186.78;;;20.03;92.82
15694;BME280;7947;48.834;9.132;2023-06-22T03:35:58;98184.72;;;20.00;93.25
15694;BME280;7947;48.834;9.132;2023-06-22T03:39:20;98188.38;;;20.04;93.69
15694;BME280;7947;48.834;9.132;2023-06-22T03:42:53;98187.38;;;20.08;93.94
15694;BME280;7947;48.834;9.132;2023-06-22T03:46:08;98182.91;;;20.04;93.81
15694;BME280;7947;48.834;9.132;2023-06-22T03:49:25;98183.13;;;19.99;94.11
15694;BME280;7947;48.834;9.132;2023-06-22T03:52:57;98173.81;;;20.00;94.14
15694;BME280;7947;48.834;9.132;2023-06-22T03:56:18;98174.28;;;20.02;94.38
15694;BME280;7947;48.834;9.132;2023-06-22T03:59:30;98175.69;;;20.08;94.60
15694;BME280;7947;48.834;9.132;2023-06-22T04:02:43;98177.16;;;20.05;94.70
15694;BME280;7947;48.834;9.132;2023-06-22T04:06:11;98176.25;;;20.13;94.77
15694;BME280;7947;48.834;9.132;2023-06-22T04:09:41;98176.41;;;20.17;94.69
15694;BME280;7947;48.834;9.132;2023-06-22T04:13:17;98174.28;;;20.22;94.62
15694;BME280;7947;48.834;9.132;2023-06-22T04:16:47;98168.28;;;20.29;94.47
15694;BME280;7947;48.834;9.132;2023-06-22T04:20:02;98161.94;;;20.37;94.24
15694;BME280;7947;48.834;9.132;2023-06-22T04:23:19;98168.13;;;20.46;94.13
15694;BME280;7947;48.834;9.132;2023-06-22T04:26:35;98169.94;;;20.54;94.19
15694;BME280;7947;48.834;9.132;2023-06-22T04:29:45;98164.28;;;20.59;93.91
15694;BME280;7947;48.834;9.132;2023-06-22T04:33:11;98155.53;;;20.65;93.59
15694;BME280;7947;48.834;9.132;2023-06-22T04:36:34;98152.13;;;20.68;92.67
15694;BME280;7947;48.834;9.132;2023-06-22T04:39:59;98146.22;;;20.66;92.66
15694;BME280;7947;48.834;9.132;2023-06-22T04:43:14;98159.06;;;20.78;92.69
15694;BME280;7947;48.834;9.132;2023-06-22T04:46:26;98154.19;;;20.84;92.36
15694;BME280;7947;48.834;9.132;2023-06-22T04:49:48;98151.22;;;20.89;92.12
15694;BME280;7947;48.834;9.132;2023-06-22T04:53:18;98137.81;;;20.96;91.96
15694;BME280;7947;48.834;9.132;2023-06-22T04:56:31;98136.16;;;21.03;92.04
15694;BME280;7947;48.834;9.132;2023-06-22T04:59:51;98133.28;;;21.12;91.48
15694;BME280;7947;48.834;9.132;2023-06-22T05:03:19;98130.34;;;21.17;91.68
15694;BME280;7947;48.834;9.132;2023-06-22T05:06:31;98126.91;;;21.20;91.30
15694;BME280;7947;48.834;9.132;2023-06-22T05:09:49;98122.59;;;21.19;90.92
15694;BME280;7947;48.834;9.132;2023-06-22T05:13:04;98130.63;;;21.27;90.63
15694;BME280;7947;48.834;9.132;2023-06-22T05:16:35;98131.53;;;21.31;89.56
15694;BME280;7947;48.834;9.132;2023-06-22T05:19:52;98126.06;;;21.43;89.58
15694;BME280;7947;48.834;9.132;2023-06-22T05:23:01;98124.69;;;21.49;88.59
15694;BME280;7947;48.834;9.132;2023-06-22T05:26:17;98125.03;;;21.48;88.14
15694;BME280;7947;48.834;9.132;2023-06-22T05:29:23;98107.72;;;21.56;88.31
15694;BME280;7947;48.834;9.132;2023-06-22T05:32:33;98111.25;;;21.56;87.67
15694;BME280;7947;48.834;9.132;2023-06-22T05:35:36;98110.97;;;21.74;88.10
15694;BME280;7947;48.834;9.132;2023-06-22T05:38:40;98112.75;;;21.82;86.83
15694;BME280;7947;48.834;9.132;2023-06-22T05:41:44;98110.84;;;21.82;86.73
15694;BME280;7947;48.834;9.132;2023-06-22T05:44:47;98114.31;;;21.95;85.55
15694;BME280;7947;48.834;9.132;2023-06-22T05:47:51;98121.66;;;22.06;85.15
15694;BME280;7947;48.834;9.132;2023-06-22T05:50:54;98113.91;;;22.08;84.25
15694;BME280;7947;48.834;9.132;2023-06-22T05:53:57;98119.00;;;22.10;84.50
15694;BME280;7947;48.834;9.132;2023-06-22T05:57:00;98108.53;;;22.12;84.80
15694;BME280;7947;48.834;9.132;2023-06-22T06:00:03;98115.03;;;22.07;84.67
15694;BME280;7947;48.834;9.132;2023-06-22T06:03:10;98105.09;;;22.15;84.64
15694;BME280;7947;48.834;9.132;2023-06-22T06:06:16;98109.59;;;22.23;84.70
15694;BME280;7947;48.834;9.132;2023-06-22T06:09:19;98104.66;;;22.28;84.47
15694;BME280;7947;48.834;9.132;2023-06-22T06:12:22;98101.56;;;22.30;83.12
15694;BME280;7947;48.834;9.132;2023-06-22T06:15:25;98096.47;;;22.44;82.77
15694;BME280;7947;48.834;9.132;2023-06-22T06:18:29;98096.22;;;22.49;83.14
15694;BME280;7947;48.834;9.132;2023-06-22T06:21:31;98101.16;;;22.59;83.63
15694;BME280;7947;48.834;9.132;2023-06-22T06:24:34;98090.22;;;22.75;83.06
15694;BME280;7947;48.834;9.132;2023-06-22T06:27:37;98095.22;;;22.88;83.45
15694;BME280;7947;48.834;9.132;2023-06-22T06:30:39;98092.25;;;22.93;82.13
15694;BME280;7947;48.834;9.132;2023-06-22T06:33:44;98099.63;;;23.08;82.19
15694;BME280;7947;48.834;9.132;2023-06-22T06:36:46;98097.09;;;23.19;81.99
15694;BME280;7947;48.834;9.132;2023-06-22T06:39:49;98092.78;;;23.34;81.18
15694;BME280;7947;48.834;9.132;2023-06-22T06:42:52;98100.94;;;23.49;80.68
15694;BME280;7947;48.834;9.132;2023-06-22T06:45:54;98105.91;;;23.63;79.38
15694;BME280;7947;48.834;9.132;2023-06-22T06:48:58;98114.75;;;23.75;78.83
15694;BME280;7947;48.834;9.132;2023-06-22T06:52:01;98109.88;;;23.84;76.41
15694;BME280;7947;48.834;9.132;2023-06-22T06:55:05;98107.63;;;23.90;76.20
15694;BME280;7947;48.834;9.132;2023-06-22T06:58:09;98100.84;;;24.03;75.82
15694;BME280;7947;48.834;9.132;2023-06-22T07:01:14;98097.66;;;24.20;74.39
15694;BME280;7947;48.834;9.132;2023-06-22T07:04:18;98100.59;;;24.31;74.25
15694;BME280;7947;48.834;9.132;2023-06-22T07:07:21;98095.75;;;24.47;75.10
15694;BME280;7947;48.834;9.132;2023-06-22T07:10:24;98091.63;;;24.56;73.90
15694;BME280;7947;48.834;9.132;2023-06-22T07:13:26;98087.06;;;24.64;72.95
15694;BME280;7947;48.834;9.132;2023-06-22T07:16:29;98078.34;;;24.81;72.96
15694;BME280;7947;48.834;9.132;2023-06-22T07:19:34;98066.06;;;25.01;71.67
15694;BME280;7947;48.834;9.132;2023-06-22T07:22:37;98063.75;;;25.03;70.54
15694;BME280;7947;48.834;9.132;2023-06-22T07:25:40;98056.47;;;25.14;69.58
15694;BME280;7947;48.834;9.132;2023-06-22T07:28:42;98052.75;;;25.29;70.69
15694;BME280;7947;48.834;9.132;2023-06-22T07:31:45;98053.63;;;25.37;68.35
15694;BME280;7947;48.834;9.132;2023-06-22T07:34:49;98037.25;;;25.44;69.38
15694;BME280;7947;48.834;9.132;2023-06-22T07:37:52;98038.97;;;25.55;67.96
15694;BME280;7947;48.834;9.132;2023-06-22T07:40:55;98029.38;;;25.72;68.22
15694;BME280;7947;48.834;9.132;2023-06-22T07:43:57;98028.63;;;25.78;65.85
15694;BME280;7947;48.834;9.132;2023-06-22T07:47:00;98031.72;;;25.73;66.60
15694;BME280;7947;48.834;9.132;2023-06-22T07:50:05;98015.28;;;25.77;65.94
15694;BME280;7947;48.834;9.132;2023-06-22T07:53:08;98015.00;;;25.85;66.88
15694;BME280;7947;48.834;9.132;2023-06-22T07:56:11;98019.47;;;26.04;64.95
15694;BME280;7947;48.834;9.132;2023-06-22T07:59:14;98004.78;;;26.23;65.06
15694;BME280;7947;48.834;9.132;2023-06-22T08:02:16;98015.53;;;26.42;66.27
15694;BME280;7947;48.834;9.132;2023-06-22T08:05:20;98025.50;;;26.64;64.17
15694;BME280;7947;48.834;9.132;2023-06-22T08:08:23;98042.88;;;26.71;64.40
15694;BME280;7947;48.834;9.132;2023-06-22T08:11:26;98045.00;;;26.89;63.56
15694;BME280;7947;48.834;9.132;2023-06-22T08:14:30;98049.81;;;27.06;61.75
15694;BME280;7947;48.834;9.132;2023-06-22T08:17:32;98051.03;;;27.12;60.27
15694;BME280;7947;48.834;9.132;2023-06-22T08:20:37;98058.59;;;27.29;60.62
15694;BME280;7947;48.834;9.132;2023-06-22T08:23:39;98058.72;;;27.46;59.44
15694;BME280;7947;48.834;9.132;2023-06-22T08:26:42;98058.66;;;27.43;59.68
15694;BME280;7947;48.834;9.132;2023-06-22T08:29:45;98054.69;;;27.33;61.12
15694;BME280;7947;48.834;9.132;2023-06-22T08:32:47;98070.00;;;27.27;61.69
15694;BME280;7947;48.834;9.132;2023-06-22T08:35:51;98073.00;;;27.08;59.92
15694;BME280;7947;48.834;9.132;2023-06-22T08:38:54;98069.41;;;26.94;59.92
15694;BME280;7947;48.834;9.132;2023-06-22T08:42:04;98060.53;;;26.67;61.69
15694;BME280;7947;48.834;9.132;2023-06-22T08:45:08;98055.28;;;26.51;62.62
15694;BME280;7947;48.834;9.132;2023-06-22T08:48:11;98050.91;;;26.43;63.13
15694;BME280;7947;48.834;9.132;2023-06-22T08:51:15;98047.75;;;26.41;62.78
15694;BME280;7947;48.834;9.132;2023-06-22T08:54:18;98039.13;;;26.46;63.54
15694;BME280;7947;48.834;9.132;2023-06-22T08:57:21;98045.72;;;26.78;62.16
15694;BME280;7947;48.834;9.132;2023-06-22T09:00:24;98050.66;;;27.20;61.76
15694;BME280;7947;48.834;9.132;2023-06-22T09:03:27;98044.44;;;27.30;61.19
15694;BME280;7947;48.834;9.132;2023-06-22T09:06:32;98038.16;;;27.33;60.36
15694;BME280;7947;48.834;9.132;2023-06-22T09:09:35;98044.94;;;27.53;61.26
15694;BME280;7947;48.834;9.132;2023-06-22T09:12:39;98053.63;;;27.62;61.01
15694;BME280;7947;48.834;9.132;2023-06-22T09:15:42;98069.81;;;27.67;60.78
15694;BME280;7947;48.834;9.132;2023-06-22T09:18:46;98053.28;;;27.71;60.27
15694;BME280;7947;48.834;9.132;2023-06-22T09:21:52;98039.91;;;27.66;60.74
15694;BME280;7947;48.834;9.132;2023-06-22T09:24:55;98049.41;;;27.93;61.66
15694;BME280;7947;48.834;9.132;2023-06-22T09:27:58;98035.28;;;28.05;56.97
15694;BME280;7947;48.834;9.132;2023-06-22T09:31:01;98027.03;;;28.19;58.56
15694;BME280;7947;48.834;9.132;2023-06-22T09:34:03;98018.34;;;28.42;59.28
15694;BME280;7947;48.834;9.132;2023-06-22T09:37:08;98004.59;;;28.60;56.94
15694;BME280;7947;48.834;9.132;2023-06-22T09:40:11;97994.72;;;28.76;57.85
15694;BME280;7947;48.834;9.132;2023-06-22T09:43:27;98002.13;;;29.00;54.69
15694;BME280;7947;48.834;9.132;2023-06-22T09:46:29;97985.13;;;29.19;54.44
15694;BME280;7947;48.834;9.132;2023-06-22T09:49:32;97970.84;;;29.35;54.13
15694;BME280;7947;48.834;9.132;2023-06-22T09:52:49;97961.31;;;29.47;55.03
15694;BME280;7947;48.834;9.132;2023-06-22T09:55:56;97956.16;;;29.52;53.06
15694;BME280;7947;48.834;9.132;2023-06-22T09:58:59;97962.41;;;29.67;54.53
15694;BME280;7947;48.834;9.132;2023-06-22T10:02:19;97955.97;;;29.87;51.05
15694;BME280;7947;48.834;9.132;2023-06-22T10:05:22;97957.22;;;29.79;50.72
15694;BME280;7947;48.834;9.132;2023-06-22T10:08:26;97960.88;;;29.59;51.18
15694;BME280;7947;48.834;9.132;2023-06-22T10:11:29;97959.31;;;29.54;52.38
15694;BME280;7947;48.834;9.132;2023-06-22T10:14:33;97954.22;;;29.49;53.28
15694;BME280;7947;48.834;9.132;2023-06-22T10:17:35;97938.16;;;29.26;53.29
15694;BME280;7947;48.834;9.132;2023-06-22T10:20:38;97939.00;;;29.16;54.20
15694;BME280;7947;48.834;9.132;2023-06-22T10:23:42;97947.25;;;29.09;52.23
15694;BME280;7947;48.834;9.132;2023-06-22T10:26:45;97944.50;;;29.16;52.79
15694;BME280;7947;48.834;9.132;2023-06-22T10:29:47;97932.56;;;29.37;52.96
15694;BME280;7947;48.834;9.132;2023-06-22T10:32:50;97934.03;;;29.52;52.41
15694;BME280;7947;48.834;9.132;2023-06-22T10:35:53;97925.69;;;29.63;53.22
15694;BME280;7947;48.834;9.132;2023-06-22T10:38:57;97926.00;;;29.82;52.61
15694;BME280;7947;48.834;9.132;2023-06-22T10:42:03;97918.88;;;29.85;52.71
15694;BME280;7947;48.834;9.132;2023-06-22T10:45:07;97923.69;;;29.70;50.09
15694;BME280;7947;48.834;9.132;2023-06-22T10:48:10;97911.78;;;29.80;52.62
15694;BME280;7947;48.834;9.132;2023-06-22T10:51:13;97909.75;;;29.88;49.92
15694;BME280;7947;48.834;9.132;2023-06-22T10:54:17;97905.28;;;30.01;50.75
15694;BME280;7947;48.834;9.132;2023-06-22T10:57:21;97897.47;;;29.92;50.94
15694;BME280;7947;48.834;9.132;2023-06-22T11:00:24;97906.28;;;29.77;50.25
15694;BME280;7947;48.834;9.132;2023-06-22T11:03:27;97914.13;;;29.82;52.58
15694;BME280;7947;48.834;9.132;2023-06-22T11:06:30;97912.50;;;29.88;52.62
15694;BME280;7947;48.834;9.132;2023-06-22T11:09:34;97908.63;;;29.78;51.27
15694;BME280;7947;48.834;9.132;2023-06-22T11:12:36;97912.19;;;29.79;52.72
15694;BME280;7947;48.834;9.132;2023-06-22T11:15:40;97903.91;;;29.75;52.84
15694;BME280;7947;48.834;9.132;2023-06-22T11:18:43;97898.75;;;29.77;53.47
15694;BME280;7947;48.834;9.132;2023-06-22T11:21:47;97907.50;;;29.72;51.53
15694;BME280;7947;48.834;9.132;2023-06-22T11:24:51;97905.56;;;29.62;51.33
15694;BME280;7947;48.834;9.132;2023-06-22T11:27:54;97906.41;;;29.52;53.21
15694;BME280;7947;48.834;9.132;2023-06-22T11:30:56;97901.38;;;29.36;52.76
15694;BME280;7947;48.834;9.132;2023-06-22T11:34:06;97906.16;;;29.29;53.68
15694;BME280;7947;48.834;9.132;2023-06-22T11:37:12;97893.94;;;29.23;53.84
15694;BME280;7947;48.834;9.132;2023-06-22T11:40:20;97885.31;;;29.21;54.98
15694;BME280;7947;48.834;9.132;2023-06-22T11:43:24;97897.88;;;29.25;54.32
15694;BME280;7947;48.834;9.132;2023-06-22T11:46:27;97895.50;;;29.27;55.64
15694;BME280;7947;48.834;9.132;2023-06-22T11:49:30;97888.81;;;29.25;54.88
15694;BME280;7947;48.834;9.132;2023-06-22T11:52:34;97873.06;;;29.22;54.32
15694;BME280;7947;48.834;9.132;2023-06-22T11:55:39;97893.97;;;29.19;54.37
15694;BME280;7947;48.834;9.132;2023-06-22T11:58:42;97880.53;;;29.25;52.55
15694;BME280;7947;48.834;9.132;2023-06-22T12:01:44;97894.78;;;29.09;54.19
15694;BME280;7947;48.834;9.132;2023-06-22T12:04:47;97897.16;;;29.04;51.85
15694;BME280;7947;48.834;9.132;2023-06-22T12:07:54;97916.53;;;28.97;53.56
15694;BME280;7947;48.834;9.132;2023-06-22T12:10:58;97915.41;;;28.87;52.53
15694;BME280;7947;48.834;9.132;2023-06-22T12:14:01;97917.41;;;28.80;53.21
15694;BME280;7947;48.834;9.132;2023-06-22T12:17:04;97903.59;;;28.80;54.18
15694;BME280;7947;48.834;9.132;2023-06-22T12:20:08;97901.63;;;28.80;53.70
15694;BME280;7947;48.834;9.132;2023-06-22T12:23:10;97896.09;;;28.84;53.94
15694;BME280;7947;48.834;9.132;2023-06-22T12:26:14;97905.53;;;28.86;53.90
15694;BME280;7947;48.834;9.132;2023-06-22T12:29:17;97908.31;;;28.90;53.65
15694;BME280;7947;48.834;9.132;2023-06-22T12:32:20;97896.81;;;28.95;53.36
15694;BME280;7947;48.834;9.132;2023-06-22T12:35:23;97894.81;;;29.02;52.54
15694;BME280;7947;48.834;9.132;2023-06-22T12:38:26;97896.38;;;29.07;53.65
15694;BME280;7947;48.834;9.132;2023-06-22T12:41:30;97913.38;;;29.05;52.39
15694;BME280;7947;48.834;9.132;2023-06-22T12:44:33;97909.81;;;29.01;52.04
15694;BME280;7947;48.834;9.132;2023-06-22T12:47:36;97912.19;;;28.99;51.64
15694;BME280;7947;48.834;9.132;2023-06-22T12:50:39;97912.97;;;29.00;51.84
15694;BME280;7947;48.834;9.132;2023-06-22T12:53:42;97918.13;;;29.01;53.47
15694;BME280;7947;48.834;9.132;2023-06-22T12:56:46;97918.91;;;28.98;53.65
15694;BME280;7947;48.834;9.132;2023-06-22T12:59:49;97926.81;;;28.93;54.64
15694;BME280;7947;48.834;9.132;2023-06-22T13:02:52;97927.63;;;28.86;54.60
15694;BME280;7947;48.834;9.132;2023-06-22T13:05:57;97920.94;;;28.77;57.00
15694;BME280;7947;48.834;9.132;2023-06-22T13:09:00;97918.22;;;28.70;58.37
15694;BME280;7947;48.834;9.132;2023-06-22T13:12:08;97910.75;;;28.67;59.15
15694;BME280;7947;48.834;9.132;2023-06-22T13:15:11;97912.72;;;28.63;58.37
15694;BME280;7947;48.834;9.132;2023-06-22T13:18:14;97921.78;;;28.60;58.92
15694;BME280;7947;48.834;9.132;2023-06-22T13:21:16;97906.03;;;28.57;58.70
15694;BME280;7947;48.834;9.132;2023-06-22T13:24:19;97907.59;;;28.58;57.66
15694;BME280;7947;48.834;9.132;2023-06-22T13:27:23;97898.53;;;28.64;58.02
15694;BME280;7947;48.834;9.132;2023-06-22T13:30:26;97887.03;;;28.73;57.27
15694;BME280;7947;48.834;9.132;2023-06-22T13:33:29;97867.69;;;28.83;57.10
15694;BME280;7947;48.834;9.132;2023-06-22T13:36:50;97858.16;;;28.98;59.84
15694;BME280;7947;48.834;9.132;2023-06-22T13:39:56;97864.81;;;29.04;59.90
15694;BME280;7947;48.834;9.132;2023-06-22T13:43:02;97854.97;;;29.07;60.43
15694;BME280;7947;48.834;9.132;2023-06-22T13:46:05;97855.72;;;29.11;58.42
15694;BME280;7947;48.834;9.132;2023-06-22T13:49:08;97847.41;;;29.18;57.86
15694;BME280;7947;48.834;9.132;2023-06-22T13:52:10;97849.38;;;29.24;58.03
15694;BME280;7947;48.834;9.132;2023-06-22T13:55:14;97840.69;;;29.22;57.49
15694;BME280;7947;48.834;9.132;2023-06-22T13:58:19;97837.53;;;29.24;57.28
15694;BME280;7947;48.834;9.132;2023-06-22T14:01:23;97837.53;;;29.20;57.56
15694;BME280;7947;48.834;9.132;2023-06-22T14:04:26;97821.75;;;29.17;57.11
15694;BME280;7947;48.834;9.132;2023-06-22T14:07:30;97818.22;;;29.20;55.49
15694;BME280;7947;48.834;9.132;2023-06-22T14:10:33;97813.84;;;29.23;55.51
15694;BME280;7947;48.834;9.132;2023-06-22T14:13:37;97807.88;;;29.28;54.43
15694;BME280;7947;48.834;9.132;2023-06-22T14:16:43;97813.81;;;29.30;54.24
15694;BME280;7947;48.834;9.132;2023-06-22T14:19:45;97804.66;;;29.36;54.95
15694;BME280;7947;48.834;9.132;2023-06-22T14:22:48;97808.44;;;29.60;55.65
15694;BME280;7947;48.834;9.132;2023-06-22T14:25:51;97820.09;;;29.85;53.81
15694;BME280;7947;48.834;9.132;2023-06-22T14:28:55;97816.38;;;30.02;51.86
15694;BME280;7947;48.834;9.132;2023-06-22T14:31:59;97811.94;;;30.12;51.65
15694;BME280;7947;48.834;9.132;2023-06-22T14:35:01;97811.50;;;30.17;51.44
15694;BME280;7947;48.834;9.132;2023-06-22T14:38:04;97812.56;;;30.26;51.10
15694;BME280;7947;48.834;9.132;2023-06-22T14:41:07;97814.41;;;30.40;48.78
15694;BME280;7947;48.834;9.132;2023-06-22T14:44:17;97824.63;;;30.47;48.86
15694;BME280;7947;48.834;9.132;2023-06-22T14:47:20;97821.19;;;30.69;49.04
15694;BME280;7947;48.834;9.132;2023-06-22T14:50:23;97815.72;;;30.96;48.06
15694;BME280;7947;48.834;9.132;2023-06-22T14:53:26;97803.72;;;31.33;45.84
15694;BME280;7947;48.834;9.132;2023-06-22T14:56:28;97799.25;;;31.65;45.10
15694;BME280;7947;48.834;9.132;2023-06-22T14:59:34;97806.75;;;31.91;34.93
15694;BME280;7947;48.834;9.132;2023-06-22T15:02:37;97795.22;;;32.16;34.75
15694;BME280;7947;48.834;9.132;2023-06-22T15:05:41;97785.75;;;32.33;33.14
15694;BME280;7947;48.834;9.132;2023-06-22T15:08:44;97787.41;;;32.50;32.88
15694;BME280;7947;48.834;9.132;2023-06-22T15:11:47;97787.66;;;32.59;31.74
15694;BME280;7947;48.834;9.132;2023-06-22T15:14:51;97779.66;;;32.61;30.96
15694;BME280;7947;48.834;9.132;2023-06-22T15:17:54;97768.84;;;32.67;31.17
15694;BME280;7947;48.834;9.132;2023-06-22T15:20:57;97767.25;;;32.66;31.79
15694;BME280;7947;48.834;9.132;2023-06-22T15:24:01;97777.88;;;32.71;31.21
15694;BME280;7947;48.834;9.132;2023-06-22T15:27:05;97774.66;;;32.72;30.03
15694;BME280;7947;48.834;9.132;2023-06-22T15:30:10;97756.50;;;32.68;30.65
15694;BME280;7947;48.834;9.132;2023-06-22T15:33:13;97760.94;;;32.65;32.15
15694;BME280;7947;48.834;9.132;2023-06-22T15:36:16;97767.53;;;32.71;31.93
15694;BME280;7947;48.834;9.132;2023-06-22T15:39:20;97767.97;;;32.70;31.33
15694;BME280;7947;48.834;9.132;2023-06-22T15:42:24;97761.59;;;32.53;31.40
15694;BME280;7947;48.834;9.132;2023-06-22T15:45:29;97769.31;;;32.23;31.78
15694;BME280;7947;48.834;9.132;2023-06-22T15:48:31;97775.75;;;31.96;31.52
15694;BME280;7947;48.834;9.132;2023-06-22T15:51:34;97771.41;;;31.72;31.55
15694;BME280;7947;48.834;9.132;2023-06-22T15:54:37;97765.44;;;31.51;32.43
15694;BME280;7947;48.834;9.132;2023-06-22T15:57:43;97764.84;;;31.36;33.67
15694;BME280;7947;48.834;9.132;2023-06-22T16:00:50;97757.44;;;31.30;34.00
15694;BME280;7947;48.834;9.132;2023-06-22T16:03:54;97767.78;;;31.26;34.07
15694;BME280;7947;48.834;9.132;2023-06-22T16:06:57;97765.75;;;31.03;34.80
15694;BME280;7947;48.834;9.132;2023-06-22T16:10:00;97765.97;;;30.89;34.92
15694;BME280;7947;48.834;9.132;2023-06-22T16:13:03;97767.38;;;30.70;35.12
15694;BME280;7947;48.834;9.132;2023-06-22T16:16:07;97755.97;;;30.65;35.88
15694;BME280;7947;48.834;9.132;2023-06-22T16:19:09;97754.59;;;30.50;36.17
15694;BME280;7947;48.834;9.132;2023-06-22T16:22:13;97754.72;;;30.39;36.00
15694;BME280;7947;48.834;9.132;2023-06-22T16:25:16;97756.41;;;30.30;36.54
15694;BME280;7947;48.834;9.132;2023-06-22T16:28:18;97755.25;;;30.27;36.96
15694;BME280;7947;48.834;9.132;2023-06-22T16:31:23;97743.06;;;30.21;35.42
15694;BME280;7947;48.834;9.132;2023-06-22T16:34:26;97729.59;;;30.23;35.93
15694;BME280;7947;48.834;9.132;2023-06-22T16:37:29;97725.41;;;30.11;36.42
15694;BME280;7947;48.834;9.132;2023-06-22T16:40:32;97704.88;;;30.09;35.89